sensor_id;sensor_type;location;lat;lon;timestamp;pressure;altitude;pressure_sealevel;temperature;humidity
72444;BME280;60449;52.016;5.414;2022-07-10T00:00:07;102704.66;;;14.76;68.85
72444;BME280;60449;52.016;5.414;2022-07-10T00:01:13;102705.81;;;14.48;69.45
72444;BME280;60449;52.016;5.414;2022-07-10T00:02:04;102709.44;;;14.51;69.48
72444;BME280;60449;52.016;5.414;2022-07-10T00:06:38;102696.91;;;14.87;67.48
72444;BME280;60449;52.016;5.414;2022-07-10T00:11:32;102684.72;;;14.98;67.12
72444;BME280;60449;52.016;5.414;2022-07-10T00:12:23;102684.88;;;15.08;66.94
72444;BME280;60449;52.016;5.414;2022-07-10T00:13:13;102688.59;;;15.18;66.54
72444;BME280;60449;52.016;5.414;2022-07-10T00:14:05;102686.72;;;15.12;67.02
72444;BME280;60449;52.016;5.414;2022-07-10T00:17:26;102684.41;;;14.81;67.39
72444;BME280;60449;52.016;5.414;2022-07-10T00:20:05;102679.84;;;14.74;68.13
72444;BME280;60449;52.016;5.414;2022-07-10T00:21:17;102680.00;;;14.83;68.17
72444;BME280;60449;52.016;5.414;2022-07-10T03:46:38;102615.34;;;15.34;68.65
72444;BME280;60449;52.016;5.414;2022-07-10T03:47:49;102607.59;;;15.48;67.92
72444;BME280;60449;52.016;5.414;2022-07-10T03:48:49;102601.28;;;15.41;68.41
72444;BME280;60449;52.016;5.414;2022-07-10T03:49:48;102597.81;;;15.47;67.65
72444;BME280;60449;52.016;5.414;2022-07-10T03:50:39;102600.59;;;15.56;67.59
72444;BME280;60449;52.016;5.414;2022-07-10T03:51:35;102595.22;;;15.50;67.27
72444;BME280;60449;52.016;5.414;2022-07-10T03:52:25;102596.88;;;15.43;67.64
72444;BME280;60449;52.016;5.414;2022-07-10T03:53:16;102601.66;;;15.09;69.59
72444;BME280;60449;52.016;5.414;2022-07-10T03:54:06;102604.50;;;15.20;69.46
72444;BME280;60449;52.016;5.414;2022-07-10T03:55:01;102600.19;;;15.28;69.25
72444;BME280;60449;52.016;5.414;2022-07-10T03:55:51;102603.59;;;15.18;69.46
72444;BME280;60449;52.016;5.414;2022-07-10T03:56:43;102604.50;;;15.20;69.44
72444;BME280;60449;52.016;5.414;2022-07-10T03:57:57;102604.47;;;15.17;69.82
72444;BME280;60449;52.016;5.414;2022-07-10T03:58:51;102603.47;;;15.10;70.53
72444;BME280;60449;52.016;5.414;2022-07-10T04:05:19;102596.00;;;15.46;68.84
72444;BME280;60449;52.016;5.414;2022-07-10T04:06:10;102604.09;;;15.52;68.02
72444;BME280;60449;52.016;5.414;2022-07-10T04:07:00;102601.44;;;15.53;68.09
72444;BME280;60449;52.016;5.414;2022-07-10T04:08:01;102601.63;;;15.64;67.79
72444;BME280;60449;52.016;5.414;2022-07-10T04:08:53;102602.47;;;15.62;67.75
72444;BME280;60449;52.016;5.414;2022-07-10T04:09:45;102604.22;;;15.60;67.62
72444;BME280;60449;52.016;5.414;2022-07-10T04:10:39;102600.81;;;15.71;67.47
72444;BME280;60449;52.016;5.414;2022-07-10T04:11:50;102596.28;;;15.63;68.59
72444;BME280;60449;52.016;5.414;2022-07-10T04:12:43;102592.53;;;14.93;70.93
72444;BME280;60449;52.016;5.414;2022-07-10T04:13:33;102589.09;;;14.98;71.50
72444;BME280;60449;52.016;5.414;2022-07-10T04:14:27;102587.84;;;14.78;71.58
72444;BME280;60449;52.016;5.414;2022-07-10T04:15:19;102584.44;;;14.85;71.66
72444;BME280;60449;52.016;5.414;2022-07-10T04:16:11;102578.34;;;14.91;71.18
72444;BME280;60449;52.016;5.414;2022-07-10T04:17:02;102580.28;;;15.01;70.58
72444;BME280;60449;52.016;5.414;2022-07-10T04:17:53;102585.97;;;15.24;70.00
72444;BME280;60449;52.016;5.414;2022-07-10T04:18:47;102592.38;;;15.37;69.74
72444;BME280;60449;52.016;5.414;2022-07-10T04:21:00;102596.09;;;15.49;69.35
72444;BME280;60449;52.016;5.414;2022-07-10T04:24:05;102593.47;;;15.53;69.47
72444;BME280;60449;52.016;5.414;2022-07-10T04:28:57;102600.97;;;15.21;71.46
72444;BME280;60449;52.016;5.414;2022-07-10T04:29:49;102603.84;;;15.33;70.66
72444;BME280;60449;52.016;5.414;2022-07-10T04:30:41;102595.75;;;15.27;71.26
72444;BME280;60449;52.016;5.414;2022-07-10T04:31:34;102600.34;;;15.37;70.51
72444;BME280;60449;52.016;5.414;2022-07-10T04:41:39;102588.00;;;15.41;69.92
72444;BME280;60449;52.016;5.414;2022-07-10T04:42:35;102594.22;;;15.44;70.31
72444;BME280;60449;52.016;5.414;2022-07-10T04:43:25;102592.44;;;15.43;70.68
72444;BME280;60449;52.016;5.414;2022-07-10T04:48:05;102603.47;;;15.71;69.39
72444;BME280;60449;52.016;5.414;2022-07-10T04:49:19;102603.50;;;15.73;69.37
72444;BME280;60449;52.016;5.414;2022-07-10T04:50:55;102598.97;;;15.66;69.65
72444;BME280;60449;52.016;5.414;2022-07-10T04:54:10;102602.59;;;15.72;68.83
72444;BME280;60449;52.016;5.414;2022-07-10T04:55:05;102597.47;;;15.85;68.56
72444;BME280;60449;52.016;5.414;2022-07-10T04:56:00;102598.31;;;15.82;69.03
72444;BME280;60449;52.016;5.414;2022-07-10T04:56:59;102599.97;;;15.76;69.83
72444;BME280;60449;52.016;5.414;2022-07-10T04:57:53;102598.38;;;15.85;69.39
72444;BME280;60449;52.016;5.414;2022-07-10T04:58:51;102594.63;;;15.72;69.88
72444;BME280;60449;52.016;5.414;2022-07-10T04:59:42;102597.94;;;15.56;70.31
72444;BME280;60449;52.016;5.414;2022-07-10T05:00:34;102598.69;;;15.46;70.41
72444;BME280;60449;52.016;5.414;2022-07-10T05:01:28;102591.38;;;15.30;71.17
72444;BME280;60449;52.016;5.414;2022-07-10T05:02:20;102586.28;;;15.46;70.52
72444;BME280;60449;52.016;5.414;2022-07-10T05:03:15;102587.09;;;15.40;70.40
72444;BME280;60449;52.016;5.414;2022-07-10T05:04:08;102587.25;;;15.50;70.29
72444;BME280;60449;52.016;5.414;2022-07-10T05:05:01;102582.91;;;15.56;70.26
72444;BME280;60449;52.016;5.414;2022-07-10T05:05:55;102593.53;;;15.56;70.31
72444;BME280;60449;52.016;5.414;2022-07-10T05:06:46;102598.97;;;15.66;69.61
72444;BME280;60449;52.016;5.414;2022-07-10T05:07:44;102594.75;;;15.82;69.84
72444;BME280;60449;52.016;5.414;2022-07-10T05:08:36;102602.50;;;15.65;69.75
72444;BME280;60449;52.016;5.414;2022-07-10T05:09:27;102604.47;;;15.78;69.08
72444;BME280;60449;52.016;5.414;2022-07-10T05:10:18;102596.66;;;15.89;68.80
72444;BME280;60449;52.016;5.414;2022-07-10T05:11:10;102603.59;;;15.78;69.21
72444;BME280;60449;52.016;5.414;2022-07-10T05:12:05;102603.69;;;15.87;68.99
72444;BME280;60449;52.016;5.414;2022-07-10T05:13:16;102594.84;;;15.86;68.38
72444;BME280;60449;52.016;5.414;2022-07-10T05:14:09;102604.72;;;15.95;68.86
72444;BME280;60449;52.016;5.414;2022-07-10T05:15:16;102614.31;;;15.87;69.89
72444;BME280;60449;52.016;5.414;2022-07-10T05:16:12;102606.41;;;15.90;70.33
72444;BME280;60449;52.016;5.414;2022-07-10T05:17:05;102611.94;;;16.06;70.23
72444;BME280;60449;52.016;5.414;2022-07-10T05:17:57;102615.53;;;16.09;68.59
72444;BME280;60449;52.016;5.414;2022-07-10T05:18:48;102605.81;;;16.14;68.32
72444;BME280;60449;52.016;5.414;2022-07-10T05:19:40;102604.00;;;16.09;67.71
72444;BME280;60449;52.016;5.414;2022-07-10T05:20:32;102603.00;;;16.00;68.48
72444;BME280;60449;52.016;5.414;2022-07-10T05:21:24;102610.78;;;15.86;69.09
72444;BME280;60449;52.016;5.414;2022-07-10T05:22:15;102605.56;;;15.93;68.74
72444;BME280;60449;52.016;5.414;2022-07-10T05:23:08;102601.78;;;15.77;69.62
72444;BME280;60449;52.016;5.414;2022-07-10T05:23:59;102599.00;;;15.69;69.38
72444;BME280;60449;52.016;5.414;2022-07-10T05:24:52;102598.50;;;15.93;69.10
72444;BME280;60449;52.016;5.414;2022-07-10T05:25:43;102604.56;;;15.86;69.17
72444;BME280;60449;52.016;5.414;2022-07-10T05:26:49;102600.25;;;15.93;68.71
72444;BME280;60449;52.016;5.414;2022-07-10T05:27:39;102600.53;;;16.16;68.57
72444;BME280;60449;52.016;5.414;2022-07-10T05:28:30;102596.00;;;16.07;69.70
72444;BME280;60449;52.016;5.414;2022-07-10T05:29:20;102601.47;;;16.21;69.41
72444;BME280;60449;52.016;5.414;2022-07-10T05:30:15;102598.81;;;16.21;68.34
72444;BME280;60449;52.016;5.414;2022-07-10T05:31:05;102608.66;;;16.30;68.41
72444;BME280;60449;52.016;5.414;2022-07-10T05:31:56;102608.88;;;16.47;67.87
72444;BME280;60449;52.016;5.414;2022-07-10T05:32:47;102606.03;;;16.32;68.82
72444;BME280;60449;52.016;5.414;2022-07-10T05:33:40;102602.38;;;16.22;68.10
72444;BME280;60449;52.016;5.414;2022-07-10T05:34:36;102605.84;;;16.16;68.59
72444;BME280;60449;52.016;5.414;2022-07-10T05:35:43;102598.44;;;15.90;69.25
72444;BME280;60449;52.016;5.414;2022-07-10T05:37:12;102607.59;;;16.11;69.49
72444;BME280;60449;52.016;5.414;2022-07-10T05:38:34;102609.50;;;16.23;68.90
72444;BME280;60449;52.016;5.414;2022-07-10T05:39:39;102608.72;;;16.33;68.26
72444;BME280;60449;52.016;5.414;2022-07-10T05:40:45;102607.94;;;16.43;67.80
72444;BME280;60449;52.016;5.414;2022-07-10T05:42:00;102596.25;;;16.27;68.09
72444;BME280;60449;52.016;5.414;2022-07-10T05:43:25;102606.06;;;16.35;68.71
72444;BME280;60449;52.016;5.414;2022-07-10T05:45:06;102609.84;;;16.55;67.57
72444;BME280;60449;52.016;5.414;2022-07-10T05:46:29;102606.19;;;16.44;68.22
72444;BME280;60449;52.016;5.414;2022-07-10T05:47:54;102602.63;;;16.45;68.91
72444;BME280;60449;52.016;5.414;2022-07-10T05:48:50;102600.25;;;16.70;68.89
72444;BME280;60449;52.016;5.414;2022-07-10T05:49:51;102601.91;;;16.62;68.70
72444;BME280;60449;52.016;5.414;2022-07-10T05:52:42;102604.53;;;16.55;66.37
72444;BME280;60449;52.016;5.414;2022-07-10T05:53:46;102603.78;;;16.69;66.83
72444;BME280;60449;52.016;5.414;2022-07-10T05:54:36;102596.53;;;16.55;67.29
72444;BME280;60449;52.016;5.414;2022-07-10T05:55:27;102600.25;;;16.75;66.97
72444;BME280;60449;52.016;5.414;2022-07-10T05:56:18;102602.06;;;16.77;67.38
72444;BME280;60449;52.016;5.414;2022-07-10T05:57:15;102600.53;;;17.03;66.69
72444;BME280;60449;52.016;5.414;2022-07-10T05:58:04;102602.44;;;17.19;66.50
72444;BME280;60449;52.016;5.414;2022-07-10T05:58:55;102596.28;;;17.28;66.05
72444;BME280;60449;52.016;5.414;2022-07-10T05:59:44;102598.94;;;17.28;66.94
72444;BME280;60449;52.016;5.414;2022-07-10T06:00:41;102594.38;;;17.08;67.18
72444;BME280;60449;52.016;5.414;2022-07-10T06:01:35;102593.34;;;16.97;67.11
72444;BME280;60449;52.016;5.414;2022-07-10T06:02:29;102599.91;;;17.33;66.04
72444;BME280;60449;52.016;5.414;2022-07-10T06:03:20;102592.78;;;17.32;64.90
72444;BME280;60449;52.016;5.414;2022-07-10T06:04:11;102606.78;;;17.03;65.69
72444;BME280;60449;52.016;5.414;2022-07-10T06:05:04;102601.69;;;17.34;65.27
72444;BME280;60449;52.016;5.414;2022-07-10T06:05:58;102600.75;;;17.31;65.36
72444;BME280;60449;52.016;5.414;2022-07-10T06:06:49;102612.28;;;17.28;65.39
72444;BME280;60449;52.016;5.414;2022-07-10T06:07:39;102598.16;;;17.41;64.65
72444;BME280;60449;52.016;5.414;2022-07-10T06:08:29;102602.50;;;17.27;65.55
72444;BME280;60449;52.016;5.414;2022-07-10T06:09:20;102600.69;;;17.23;65.10
72444;BME280;60449;52.016;5.414;2022-07-10T06:10:09;102601.72;;;17.44;64.54
72444;BME280;60449;52.016;5.414;2022-07-10T06:11:00;102598.16;;;17.41;63.74
72444;BME280;60449;52.016;5.414;2022-07-10T06:11:50;102595.50;;;17.41;64.17
72444;BME280;60449;52.016;5.414;2022-07-10T06:12:40;102592.84;;;17.43;64.35
72444;BME280;60449;52.016;5.414;2022-07-10T06:13:30;102593.75;;;17.48;63.82
72444;BME280;60449;52.016;5.414;2022-07-10T06:14:20;102594.66;;;17.46;64.64
72444;BME280;60449;52.016;5.414;2022-07-10T06:15:10;102598.91;;;17.22;64.98
72444;BME280;60449;52.016;5.414;2022-07-10T06:16:01;102598.59;;;16.86;66.33
72444;BME280;60449;52.016;5.414;2022-07-10T06:16:51;102596.88;;;16.91;66.47
72444;BME280;60449;52.016;5.414;2022-07-10T06:17:42;102600.53;;;17.01;65.32
72444;BME280;60449;52.016;5.414;2022-07-10T06:18:33;102597.03;;;17.07;65.70
72444;BME280;60449;52.016;5.414;2022-07-10T06:19:24;102593.50;;;17.11;65.31
72444;BME280;60449;52.016;5.414;2022-07-10T06:20:13;102601.56;;;17.16;65.22
72444;BME280;60449;52.016;5.414;2022-07-10T06:21:04;102600.63;;;17.13;65.22
72444;BME280;60449;52.016;5.414;2022-07-10T06:21:53;102596.22;;;17.16;66.12
72444;BME280;60449;52.016;5.414;2022-07-10T06:22:58;102600.41;;;16.89;66.45
72444;BME280;60449;52.016;5.414;2022-07-10T06:23:50;102601.59;;;17.22;65.73
72444;BME280;60449;52.016;5.414;2022-07-10T06:24:43;102602.59;;;17.38;65.97
72444;BME280;60449;52.016;5.414;2022-07-10T06:25:34;102601.84;;;17.62;65.01
72444;BME280;60449;52.016;5.414;2022-07-10T06:26:31;102592.84;;;17.40;64.24
72444;BME280;60449;52.016;5.414;2022-07-10T06:27:21;102602.69;;;17.53;64.70
72444;BME280;60449;52.016;5.414;2022-07-10T06:28:12;102595.31;;;17.18;65.15
72444;BME280;60449;52.016;5.414;2022-07-10T06:29:03;102592.72;;;17.26;65.64
72444;BME280;60449;52.016;5.414;2022-07-10T06:29:53;102603.22;;;17.01;66.44
72444;BME280;60449;52.016;5.414;2022-07-10T06:30:44;102603.44;;;17.29;66.19
72444;BME280;60449;52.016;5.414;2022-07-10T06:31:35;102606.09;;;17.29;65.54
72444;BME280;60449;52.016;5.414;2022-07-10T06:32:26;102602.59;;;17.39;64.44
72444;BME280;60449;52.016;5.414;2022-07-10T06:33:16;102605.31;;;17.49;63.88
72444;BME280;60449;52.016;5.414;2022-07-10T06:34:13;102607.09;;;17.50;64.66
72444;BME280;60449;52.016;5.414;2022-07-10T06:35:05;102604.03;;;16.98;66.09
72444;BME280;60449;52.016;5.414;2022-07-10T06:36:12;102605.94;;;17.13;65.12
72444;BME280;60449;52.016;5.414;2022-07-10T06:37:03;102605.75;;;16.92;65.37
72444;BME280;60449;52.016;5.414;2022-07-10T06:37:53;102608.97;;;16.58;66.65
72444;BME280;60449;52.016;5.414;2022-07-10T06:38:47;102604.53;;;16.55;66.96
72444;BME280;60449;52.016;5.414;2022-07-10T06:39:37;102608.88;;;16.47;67.45
72444;BME280;60449;52.016;5.414;2022-07-10T06:40:36;102609.22;;;16.80;67.13
72444;BME280;60449;52.016;5.414;2022-07-10T06:41:50;102611.84;;;16.78;67.42
72444;BME280;60449;52.016;5.414;2022-07-10T06:43:46;102606.00;;;17.18;65.83
72444;BME280;60449;52.016;5.414;2022-07-10T06:44:35;102613.22;;;17.33;65.07
72444;BME280;60449;52.016;5.414;2022-07-10T06:45:28;102610.09;;;16.79;66.86
72444;BME280;60449;52.016;5.414;2022-07-10T06:46:19;102618.13;;;16.88;67.15
72444;BME280;60449;52.016;5.414;2022-07-10T06:47:12;102616.25;;;16.73;66.23
72444;BME280;60449;52.016;5.414;2022-07-10T06:48:21;102606.91;;;16.31;67.80
72444;BME280;60449;52.016;5.414;2022-07-10T06:49:20;102603.38;;;16.32;67.80
72444;BME280;60449;52.016;5.414;2022-07-10T06:50:11;102609.78;;;16.49;68.03
72444;BME280;60449;52.016;5.414;2022-07-10T06:51:07;102610.66;;;16.47;68.69
72444;BME280;60449;52.016;5.414;2022-07-10T06:52:01;102598.28;;;16.52;67.73
72444;BME280;60449;52.016;5.414;2022-07-10T07:27:06;102617.66;;;17.33;65.35
72444;BME280;60449;52.016;5.414;2022-07-10T07:28:17;102614.03;;;17.26;65.80
72444;BME280;60449;52.016;5.414;2022-07-10T07:40:32;102611.53;;;17.49;65.23
72444;BME280;60449;52.016;5.414;2022-07-10T07:41:38;102610.59;;;17.42;65.18
72444;BME280;60449;52.016;5.414;2022-07-10T07:47:44;102614.31;;;17.63;63.94
72444;BME280;60449;52.016;5.414;2022-07-10T07:48:46;102610.66;;;17.52;64.63
72444;BME280;60449;52.016;5.414;2022-07-10T07:53:21;102616.53;;;17.06;65.38
72444;BME280;60449;52.016;5.414;2022-07-10T07:54:59;102599.88;;;17.30;66.94
72444;BME280;60449;52.016;5.414;2022-07-10T07:56:34;102600.81;;;17.41;65.13
72444;BME280;60449;52.016;5.414;2022-07-10T07:58:14;102600.88;;;17.48;65.42
72444;BME280;60449;52.016;5.414;2022-07-10T07:59:34;102603.63;;;17.60;65.43
72444;BME280;60449;52.016;5.414;2022-07-10T08:03:41;102603.91;;;18.15;63.38
72444;BME280;60449;52.016;5.414;2022-07-10T08:06:54;102604.66;;;17.86;63.94
72444;BME280;60449;52.016;5.414;2022-07-10T08:07:51;102600.16;;;17.77;64.79
72444;BME280;60449;52.016;5.414;2022-07-10T08:08:15;102607.34;;;17.93;64.08
72444;BME280;60449;52.016;5.414;2022-07-10T08:11:25;102600.94;;;17.59;64.13
72444;BME280;60449;52.016;5.414;2022-07-10T08:14:12;102608.81;;;17.41;65.04
72444;BME280;60449;52.016;5.414;2022-07-10T08:15:24;102619.47;;;17.38;65.26
72444;BME280;60449;52.016;5.414;2022-07-10T08:16:22;102613.31;;;17.47;65.13
72444;BME280;60449;52.016;5.414;2022-07-10T08:17:17;102610.72;;;17.56;64.98
72444;BME280;60449;52.016;5.414;2022-07-10T08:18:41;102615.88;;;17.33;66.09
72444;BME280;60449;52.016;5.414;2022-07-10T08:19:44;102624.78;;;17.35;66.49
72444;BME280;60449;52.016;5.414;2022-07-10T08:20:35;102614.94;;;17.26;65.08
72444;BME280;60449;52.016;5.414;2022-07-10T08:21:35;102609.56;;;17.19;66.40
72444;BME280;60449;52.016;5.414;2022-07-10T08:22:44;102614.00;;;17.20;66.58
72444;BME280;60449;52.016;5.414;2022-07-10T08:23:58;102609.69;;;17.34;67.15
72444;BME280;60449;52.016;5.414;2022-07-10T08:24:57;102614.28;;;17.62;66.30
72444;BME280;60449;52.016;5.414;2022-07-10T08:26:40;102618.50;;;17.27;65.41
72444;BME280;60449;52.016;5.414;2022-07-10T08:28:15;102614.84;;;17.14;66.14
72444;BME280;60449;52.016;5.414;2022-07-10T08:31:50;102614.13;;;17.35;66.00
72444;BME280;60449;52.016;5.414;2022-07-10T08:33:41;102611.44;;;17.29;65.74
72444;BME280;60449;52.016;5.414;2022-07-10T08:38:01;102614.09;;;17.34;66.59
72444;BME280;60449;52.016;5.414;2022-07-10T08:40:30;102614.09;;;17.32;66.69
72444;BME280;60449;52.016;5.414;2022-07-10T08:42:19;102611.63;;;17.62;66.07
72444;BME280;60449;52.016;5.414;2022-07-10T08:54:38;102602.22;;;18.52;62.95
72444;BME280;60449;52.016;5.414;2022-07-10T08:55:55;102608.44;;;18.42;63.08
72444;BME280;60449;52.016;5.414;2022-07-10T09:01:11;102605.59;;;18.02;63.03
72444;BME280;60449;52.016;5.414;2022-07-10T09:02:23;102603.72;;;17.76;63.09
72444;BME280;60449;52.016;5.414;2022-07-10T09:03:57;102609.84;;;17.64;63.97
72444;BME280;60449;52.016;5.414;2022-07-10T09:06:19;102601.78;;;17.50;64.42
72444;BME280;60449;52.016;5.414;2022-07-10T09:16:23;102593.38;;;19.17;61.06
72444;BME280;60449;52.016;5.414;2022-07-10T09:17:21;102595.16;;;18.98;59.97
72444;BME280;60449;52.016;5.414;2022-07-10T09:18:25;102587.13;;;18.75;60.62
72444;BME280;60449;52.016;5.414;2022-07-10T09:20:40;102591.53;;;18.46;61.11
72444;BME280;60449;52.016;5.414;2022-07-10T09:21:46;102591.53;;;18.37;62.04
72444;BME280;60449;52.016;5.414;2022-07-10T09:22:40;102593.34;;;18.72;59.96
72444;BME280;60449;52.016;5.414;2022-07-10T09:23:30;102589.81;;;18.82;60.26
72444;BME280;60449;52.016;5.414;2022-07-10T09:24:36;102581.75;;;18.79;59.38
72444;BME280;60449;52.016;5.414;2022-07-10T09:25:34;102582.66;;;18.75;59.44
72444;BME280;60449;52.016;5.414;2022-07-10T09:27:23;102586.22;;;18.71;57.81
72444;BME280;60449;52.016;5.414;2022-07-10T09:32:33;102591.56;;;18.87;61.18
72444;BME280;60449;52.016;5.414;2022-07-10T09:33:26;102593.34;;;18.80;60.70
72444;BME280;60449;52.016;5.414;2022-07-10T09:35:13;102592.50;;;19.04;59.07
72444;BME280;60449;52.016;5.414;2022-07-10T09:41:16;102593.34;;;18.78;61.17
72444;BME280;60449;52.016;5.414;2022-07-10T09:42:35;102587.09;;;18.79;60.84
72444;BME280;60449;52.016;5.414;2022-07-10T09:43:45;102582.69;;;19.13;60.51
72444;BME280;60449;52.016;5.414;2022-07-10T09:44:51;102572.88;;;19.10;59.27
72444;BME280;60449;52.016;5.414;2022-07-10T09:45:42;102576.44;;;19.29;59.50
72444;BME280;60449;52.016;5.414;2022-07-10T09:46:48;102573.75;;;19.20;61.21
72444;BME280;60449;52.016;5.414;2022-07-10T09:47:53;102570.13;;;19.49;57.90
72444;BME280;60449;52.016;5.414;2022-07-10T09:49:09;102569.25;;;19.47;58.78
72444;BME280;60449;52.016;5.414;2022-07-10T09:50:01;102573.69;;;19.54;57.56
72444;BME280;60449;52.016;5.414;2022-07-10T09:50:51;102558.53;;;19.58;57.44
72444;BME280;60449;52.016;5.414;2022-07-10T09:51:43;102570.16;;;19.46;57.64
72444;BME280;60449;52.016;5.414;2022-07-10T09:52:36;102558.63;;;19.19;58.83
72444;BME280;60449;52.016;5.414;2022-07-10T09:53:32;102567.47;;;19.50;58.82
72444;BME280;60449;52.016;5.414;2022-07-10T09:54:24;102566.63;;;19.25;56.89
72444;BME280;60449;52.016;5.414;2022-07-10T09:55:21;102561.28;;;19.27;57.69
72444;BME280;60449;52.016;5.414;2022-07-10T09:56:22;102564.84;;;19.08;58.83
72444;BME280;60449;52.016;5.414;2022-07-10T09:57:29;102565.72;;;19.32;58.04
72444;BME280;60449;52.016;5.414;2022-07-10T09:58:30;102572.81;;;19.53;57.72
72444;BME280;60449;52.016;5.414;2022-07-10T09:59:37;102564.78;;;19.47;59.60
72444;BME280;60449;52.016;5.414;2022-07-10T10:00:30;102562.19;;;19.10;59.04
72444;BME280;60449;52.016;5.414;2022-07-10T10:02:47;102562.19;;;19.19;59.76
72444;BME280;60449;52.016;5.414;2022-07-10T10:03:44;102560.34;;;19.40;59.57
72444;BME280;60449;52.016;5.414;2022-07-10T10:04:45;102562.00;;;19.92;58.64
72444;BME280;60449;52.016;5.414;2022-07-10T10:05:54;102567.19;;;20.19;60.33
72444;BME280;60449;52.016;5.414;2022-07-10T10:06:50;102564.53;;;20.14;57.03
72444;BME280;60449;52.016;5.414;2022-07-10T10:07:56;102566.31;;;20.21;57.92
72444;BME280;60449;52.016;5.414;2022-07-10T10:08:59;102559.66;;;20.77;57.04
72444;BME280;60449;52.016;5.414;2022-07-10T10:09:58;102563.94;;;21.01;55.00
72444;BME280;60449;52.016;5.414;2022-07-10T10:10:52;102560.06;;;21.30;53.52
72444;BME280;60449;52.016;5.414;2022-07-10T10:11:56;102552.47;;;20.82;53.60
72444;BME280;60449;52.016;5.414;2022-07-10T10:12:56;102565.22;;;20.50;55.68
72444;BME280;60449;52.016;5.414;2022-07-10T10:13:49;102563.50;;;20.42;54.58
72444;BME280;60449;52.016;5.414;2022-07-10T10:14:40;102563.50;;;20.38;55.14
72444;BME280;60449;52.016;5.414;2022-07-10T10:15:31;102559.19;;;20.17;55.45
72444;BME280;60449;52.016;5.414;2022-07-10T10:17:58;102564.53;;;20.14;58.04
72444;BME280;60449;52.016;5.414;2022-07-10T10:20:05;102552.75;;;20.45;58.29
72444;BME280;60449;52.016;5.414;2022-07-10T10:21:16;102549.66;;;20.99;55.62
72444;BME280;60449;52.016;5.414;2022-07-10T10:22:14;102553.41;;;20.73;54.66
72444;BME280;60449;52.016;5.414;2022-07-10T10:42:08;102552.16;;;21.18;55.48
72444;BME280;60449;52.016;5.414;2022-07-10T10:43:35;102556.00;;;20.90;57.14
72444;BME280;60449;52.016;5.414;2022-07-10T10:45:25;102553.25;;;20.98;55.61
72444;BME280;60449;52.016;5.414;2022-07-10T10:49:12;102546.28;;;20.72;57.66
72444;BME280;60449;52.016;5.414;2022-07-10T10:50:40;102548.09;;;20.70;55.38
72444;BME280;60449;52.016;5.414;2022-07-10T10:51:57;102543.53;;;20.86;54.31
72444;BME280;60449;52.016;5.414;2022-07-10T10:53:13;102549.63;;;21.02;55.59
72444;BME280;60449;52.016;5.414;2022-07-10T10:54:11;102549.69;;;20.96;55.21
72444;BME280;60449;52.016;5.414;2022-07-10T10:55:07;102540.72;;;21.00;56.12
72444;BME280;60449;52.016;5.414;2022-07-10T10:57:12;102539.66;;;21.15;53.70
72444;BME280;60449;52.016;5.414;2022-07-10T11:03:14;102558.81;;;20.70;55.65
72444;BME280;60449;52.016;5.414;2022-07-10T11:04:16;102552.78;;;20.40;57.72
72444;BME280;60449;52.016;5.414;2022-07-10T11:05:38;102557.19;;;20.49;57.27
72444;BME280;60449;52.016;5.414;2022-07-10T11:06:40;102556.41;;;20.30;56.64
72444;BME280;60449;52.016;5.414;2022-07-10T11:07:53;102558.97;;;20.45;54.92
72444;BME280;60449;52.016;5.414;2022-07-10T11:08:43;102560.91;;;20.28;56.05
72444;BME280;60449;52.016;5.414;2022-07-10T11:09:33;102556.34;;;20.37;55.60
72444;BME280;60449;52.016;5.414;2022-07-10T11:10:28;102557.31;;;20.29;56.46
72444;BME280;60449;52.016;5.414;2022-07-10T11:11:38;102550.97;;;20.44;55.10
72444;BME280;60449;52.016;5.414;2022-07-10T11:14:15;102547.72;;;19.87;58.38
72444;BME280;60449;52.016;5.414;2022-07-10T11:15:13;102543.22;;;19.88;56.99
72444;BME280;60449;52.016;5.414;2022-07-10T11:16:12;102562.84;;;20.04;56.82
72444;BME280;60449;52.016;5.414;2022-07-10T11:17:07;102553.06;;;19.81;58.65
72444;BME280;60449;52.016;5.414;2022-07-10T11:18:03;102554.81;;;20.04;59.13
72444;BME280;60449;52.016;5.414;2022-07-10T11:18:54;102558.34;;;20.04;58.42
72444;BME280;60449;52.016;5.414;2022-07-10T11:19:54;102557.44;;;20.10;58.02
72444;BME280;60449;52.016;5.414;2022-07-10T11:20:49;102557.50;;;19.98;57.83
72444;BME280;60449;52.016;5.414;2022-07-10T11:21:46;102558.44;;;19.82;58.92
72444;BME280;60449;52.016;5.414;2022-07-10T11:25:10;102551.38;;;19.66;57.48
72444;BME280;60449;52.016;5.414;2022-07-10T11:26:24;102551.44;;;19.39;58.51
72444;BME280;60449;52.016;5.414;2022-07-10T11:27:48;102552.28;;;19.51;59.14
72444;BME280;60449;52.016;5.414;2022-07-10T11:28:51;102548.81;;;19.21;60.21
72444;BME280;60449;52.016;5.414;2022-07-10T11:29:44;102551.41;;;19.44;60.28
72444;BME280;60449;52.016;5.414;2022-07-10T11:30:44;102547.81;;;19.62;60.82
72444;BME280;60449;52.016;5.414;2022-07-10T11:31:35;102550.34;;;19.96;61.65
72444;BME280;60449;52.016;5.414;2022-07-10T11:32:34;102551.25;;;19.99;61.40
72444;BME280;60449;52.016;5.414;2022-07-10T11:33:24;102550.31;;;20.06;57.55
72444;BME280;60449;52.016;5.414;2022-07-10T11:34:16;102542.31;;;20.00;57.39
72444;BME280;60449;52.016;5.414;2022-07-10T11:35:07;102543.31;;;19.67;57.82
72444;BME280;60449;52.016;5.414;2022-07-10T11:36:09;102551.25;;;20.02;58.60
72444;BME280;60449;52.016;5.414;2022-07-10T11:37:03;102537.94;;;19.77;61.27
72444;BME280;60449;52.016;5.414;2022-07-10T11:37:57;102546.72;;;20.10;58.37
72444;BME280;60449;52.016;5.414;2022-07-10T11:38:56;102543.06;;;20.23;58.52
72444;BME280;60449;52.016;5.414;2022-07-10T11:39:48;102545.59;;;20.48;56.75
72444;BME280;60449;52.016;5.414;2022-07-10T11:40:38;102554.44;;;20.58;55.11